createdAt,value
2019-03-27T00:02:30.256Z,3.73
2019-03-27T00:08:41.678Z,3.37
2019-03-27T00:11:16.487Z,3.60
2019-03-27T00:13:47.721Z,3.67
2019-03-27T00:19:07.890Z,3.60
2019-03-27T00:24:36.892Z,3.43
2019-03-27T00:27:07.395Z,3.30
2019-03-27T00:29:56.488Z,2.93
2019-03-27T00:47:51.444Z,2.97
2019-03-27T00:56:02.280Z,2.90
2019-03-27T01:05:02.033Z,3.03
2019-03-27T01:11:08.112Z,3.20
2019-03-27T01:16:41.378Z,3.40
2019-03-27T01:31:06.429Z,3.80
2019-03-27T01:33:47.536Z,3.20
2019-03-27T01:36:29.158Z,3.40
2019-03-27T01:53:14.585Z,3.27
2019-03-27T01:58:33.942Z,3.30
2019-03-27T02:01:15.052Z,3.27
2019-03-27T02:04:04.438Z,3.80
2019-03-27T02:15:29.658Z,3.33
2019-03-27T02:21:09.895Z,3.53
2019-03-27T02:32:35.386Z,3.20
2019-03-27T03:15:43.986Z,3.27
2019-03-27T03:36:06.264Z,3.10
2019-03-27T03:48:08.809Z,3.77
2019-03-27T03:50:49.879Z,3.73
2019-03-27T03:53:22.693Z,3.53
2019-03-27T03:56:22.001Z,4.00
2019-03-27T03:58:53.366Z,4.10
2019-03-27T04:21:56.393Z,3.20
2019-03-27T04:40:20.372Z,5.00
2019-03-27T04:43:01.969Z,5.33
2019-03-27T04:46:02.095Z,4.90
2019-03-27T04:48:43.247Z,5.07
2019-03-27T04:54:41.057Z,5.27
2019-03-27T04:57:21.816Z,5.40
2019-03-27T05:00:03.325Z,4.60
2019-03-27T05:03:12.600Z,5.57
2019-03-27T05:09:22.903Z,5.07
2019-03-27T05:11:54.648Z,4.57
2019-03-27T05:17:52.363Z,5.10
2019-03-27T05:20:34.060Z,4.77
2019-03-27T05:23:15.590Z,4.60
2019-03-27T05:26:16.644Z,4.50
2019-03-27T05:28:57.468Z,4.00
2019-03-27T05:31:38.924Z,3.80
2019-03-27T05:34:20.514Z,3.80
2019-03-27T05:36:52.716Z,3.40
2019-03-27T05:39:41.798Z,4.80
2019-03-27T05:48:20.022Z,3.90
2019-03-27T05:51:01.082Z,3.67
2019-03-27T05:54:02.057Z,4.13
2019-03-27T05:56:42.984Z,4.50
2019-03-27T06:02:42.017Z,3.87
2019-03-27T06:05:23.223Z,4.03
2019-03-27T06:08:04.197Z,3.43
2019-03-27T06:10:45.213Z,4.10
2019-03-27T06:13:26.868Z,3.50
2019-03-27T06:15:57.558Z,3.83
2019-03-27T06:18:58.476Z,3.50
2019-03-27T06:21:39.894Z,3.80
2019-03-27T06:27:23.300Z,3.63
2019-03-27T06:32:50.166Z,3.53
2019-03-27T06:41:53.380Z,4.83
2019-03-27T06:45:03.115Z,3.83
2019-03-27T06:47:44.051Z,4.60
2019-03-27T06:50:25.476Z,4.23
2019-03-27T06:53:34.844Z,4.50
2019-03-27T06:59:17.782Z,4.20
2019-03-27T07:02:28.998Z,4.50
2019-03-27T07:05:30.329Z,3.67
2019-03-27T07:08:31.521Z,4.07
2019-03-27T07:11:12.502Z,4.17
2019-03-27T07:14:21.695Z,3.83
2019-03-27T07:17:22.599Z,4.63
2019-03-27T07:20:23.850Z,4.07
2019-03-27T07:29:13.381Z,4.87
2019-03-27T07:35:43.495Z,4.67
2019-03-27T07:38:52.668Z,4.90
2019-03-27T07:42:02.088Z,4.83
2019-03-27T07:44:53.125Z,5.97
2019-03-27T07:47:33.963Z,5.00
2019-03-27T07:53:26.233Z,4.30
2019-03-27T07:59:17.942Z,5.00
2019-03-27T08:02:27.254Z,4.90
2019-03-27T08:05:16.512Z,4.60
2019-03-27T08:11:21.744Z,5.00
2019-03-27T08:14:03.074Z,5.07
2019-03-27T08:16:44.021Z,5.10
2019-03-27T08:19:53.385Z,5.20
2019-03-27T08:22:54.919Z,5.63
2019-03-27T08:28:37.822Z,5.07
2019-03-27T08:31:19.495Z,4.90
2019-03-27T08:34:01.163Z,5.10
2019-03-27T08:37:10.756Z,5.03
2019-03-27T08:39:43.482Z,5.53
2019-03-27T08:42:14.751Z,5.30
2019-03-27T08:44:46.408Z,5.07
2019-03-27T08:47:16.761Z,4.30
2019-03-27T08:49:47.362Z,5.13
2019-03-27T08:52:36.854Z,4.97
2019-03-27T08:55:26.046Z,4.03
2019-03-27T09:01:08.477Z,4.87
2019-03-27T09:04:09.292Z,5.37
2019-03-27T09:06:50.918Z,4.97
2019-03-27T09:12:22.377Z,5.37
2019-03-27T09:15:32.340Z,4.83
2019-03-27T09:18:24.537Z,5.03
2019-03-27T09:20:56.288Z,5.03
2019-03-27T09:23:37.781Z,4.77
2019-03-27T09:26:28.277Z,4.73
2019-03-27T09:29:19.213Z,5.70
2019-03-27T09:32:01.208Z,4.80
2019-03-27T09:34:34.285Z,4.63
2019-03-27T09:37:06.943Z,5.37
2019-03-27T09:39:40.750Z,4.70
2019-03-27T09:42:14.139Z,4.90
2019-03-27T09:44:45.823Z,5.20
2019-03-27T09:47:17.589Z,5.20
2019-03-27T09:49:50.140Z,4.90
2019-03-27T09:52:21.787Z,4.33
2019-03-27T09:55:03.685Z,4.77
2019-03-27T09:57:36.110Z,4.50
2019-03-27T10:00:13.279Z,4.67
2019-03-27T10:02:44.980Z,4.10
2019-03-27T10:05:17.939Z,4.17
2019-03-27T10:07:49.715Z,4.33
2019-03-27T10:10:22.826Z,3.90
2019-03-27T10:13:04.304Z,4.43
2019-03-27T10:15:46.434Z,4.10
2019-03-27T10:23:53.013Z,3.33
2019-03-27T10:26:25.103Z,3.40
2019-03-27T10:28:57.967Z,3.37
2019-03-27T10:31:29.116Z,3.20
2019-03-27T10:33:59.844Z,2.93
2019-03-27T10:36:31.253Z,2.90
2019-03-27T10:39:02.546Z,3.47
2019-03-27T10:41:51.911Z,3.60
2019-03-27T10:44:41.386Z,3.37
2019-03-27T10:47:13.167Z,3.63
2019-03-27T10:50:17.693Z,3.43
2019-03-27T10:52:51.513Z,3.47
2019-03-27T10:55:34.620Z,3.50
2019-03-27T10:58:35.507Z,3.50
2019-03-27T11:01:17.706Z,4.43
2019-03-27T11:04:27.383Z,4.20
2019-03-27T11:10:10.559Z,5.17
2019-03-27T11:12:52.157Z,4.33
2019-03-27T11:15:23.076Z,3.83
2019-03-27T11:18:33.608Z,3.80
2019-03-27T11:21:10.584Z,4.17
2019-03-27T11:23:59.980Z,3.83
2019-03-27T11:27:02.308Z,3.57
2019-03-27T11:35:51.538Z,4.30
2019-03-27T11:38:31.231Z,3.60
2019-03-27T11:41:12.470Z,2.97
2019-03-27T11:43:54.220Z,4.17
2019-03-27T11:46:34.118Z,3.60
2019-03-27T11:49:24.762Z,3.20
2019-03-27T11:52:14.900Z,3.77
2019-03-27T11:58:10.380Z,3.30
2019-03-27T12:04:09.877Z,3.30
2019-03-27T12:07:19.206Z,3.70
2019-03-27T12:09:50.777Z,3.53
2019-03-27T12:13:00.391Z,3.80
2019-03-27T12:15:49.563Z,4.43
2019-03-27T12:18:40.213Z,4.10
2019-03-27T12:21:31.666Z,3.87
2019-03-27T12:24:32.799Z,4.10
2019-03-27T12:27:14.663Z,3.80
2019-03-27T12:29:45.719Z,4.00
2019-03-27T12:35:18.877Z,3.60
2019-03-27T12:37:49.472Z,4.43
2019-03-27T12:40:22.203Z,3.50
2019-03-27T12:42:54.389Z,3.70
2019-03-27T12:45:26.036Z,4.10
2019-03-27T12:47:56.814Z,3.80
2019-03-27T12:50:28.801Z,3.97
2019-03-27T12:53:00.538Z,3.90
2019-03-27T12:55:33.304Z,3.73
2019-03-27T13:00:53.916Z,3.83
2019-03-27T13:03:25.550Z,3.67
2019-03-27T13:06:34.910Z,3.60
2019-03-27T13:09:15.782Z,3.00
2019-03-27T13:12:24.374Z,3.50
2019-03-27T13:15:06.201Z,4.00
2019-03-27T13:17:40.616Z,3.50
2019-03-27T13:20:16.343Z,3.70
2019-03-27T13:22:51.863Z,3.57
2019-03-27T13:25:22.600Z,3.50
2019-03-27T13:28:00.748Z,3.63
2019-03-27T13:30:32.543Z,3.73
2019-03-27T13:33:03.401Z,3.40
2019-03-27T13:35:35.575Z,3.40
2019-03-27T13:38:11.115Z,3.63
2019-03-27T13:43:43.292Z,3.37
2019-03-27T13:46:34.408Z,3.13
2019-03-27T13:49:15.588Z,2.90
2019-03-27T13:51:47.340Z,3.20
2019-03-27T13:57:31.541Z,3.63
2019-03-27T14:03:28.059Z,2.93
2019-03-27T14:06:09.614Z,2.70
2019-03-27T14:12:24.412Z,3.13
2019-03-27T14:15:24.053Z,3.23
2019-03-27T14:18:06.790Z,3.10
2019-03-27T14:20:48.559Z,3.47
2019-03-27T14:23:57.831Z,3.80
2019-03-27T14:26:47.263Z,3.67
2019-03-27T14:29:36.929Z,2.93
2019-03-27T14:32:26.329Z,3.67
2019-03-27T14:34:57.781Z,4.00
2019-03-27T14:37:28.409Z,4.00
2019-03-27T14:39:59.444Z,3.57
2019-03-27T14:42:31.178Z,3.40
2019-03-27T14:45:02.113Z,3.60
2019-03-27T14:47:32.981Z,3.50
2019-03-27T14:50:04.502Z,3.47
2019-03-27T14:52:37.049Z,3.00
2019-03-27T14:55:08.955Z,3.60
2019-03-27T14:57:40.408Z,3.97
2019-03-27T15:00:12.311Z,3.50
2019-03-27T15:02:43.254Z,3.93
2019-03-27T15:05:14.464Z,3.10
2019-03-27T15:07:45.376Z,3.53
2019-03-27T15:10:18.908Z,3.60
2019-03-27T15:12:49.999Z,3.07
2019-03-27T15:15:20.822Z,3.50
2019-03-27T15:17:51.624Z,3.50
2019-03-27T15:20:22.782Z,3.20
2019-03-27T15:22:57.507Z,2.70
2019-03-27T15:25:34.407Z,3.50
2019-03-27T15:28:06.790Z,3.60
2019-03-27T15:30:37.709Z,3.63
2019-03-27T15:33:08.405Z,3.70
2019-03-27T15:35:39.553Z,3.90
2019-03-27T15:38:28.764Z,3.53
2019-03-27T15:44:30.969Z,3.57
2019-03-27T15:47:12.710Z,3.67
2019-03-27T15:50:23.125Z,3.70
2019-03-27T15:52:55.137Z,3.60
2019-03-27T15:55:25.853Z,3.40
2019-03-27T15:57:56.512Z,3.40
2019-03-27T16:00:27.369Z,3.57
2019-03-27T16:02:58.078Z,3.70
2019-03-27T16:05:33.057Z,3.27
2019-03-27T16:08:03.832Z,4.50
2019-03-27T16:10:34.272Z,3.70
2019-03-27T16:13:05.299Z,3.80
2019-03-27T16:15:37.297Z,3.90
2019-03-27T16:18:08.352Z,3.70
2019-03-27T16:20:39.195Z,3.93
2019-03-27T16:23:11.177Z,4.30
2019-03-27T16:25:42.456Z,3.90
2019-03-27T16:28:13.461Z,3.37
2019-03-27T16:30:47.901Z,3.90
2019-03-27T16:33:18.779Z,3.57
2019-03-27T16:35:49.913Z,4.23
2019-03-27T16:38:20.609Z,4.00
2019-03-27T16:40:51.532Z,4.53
2019-03-27T16:43:22.199Z,3.73
2019-03-27T16:45:53.933Z,4.67
2019-03-27T16:48:24.832Z,3.90
2019-03-27T16:50:56.018Z,4.17
2019-03-27T16:54:05.651Z,3.53
2019-03-27T16:56:55.217Z,4.40
2019-03-27T17:02:27.382Z,3.87
2019-03-27T17:05:09.346Z,3.93
2019-03-27T17:07:51.312Z,4.07
2019-03-27T17:10:33.033Z,3.63
2019-03-27T17:13:14.593Z,3.90
2019-03-27T17:19:31.102Z,4.33
2019-03-27T17:22:18.517Z,3.70
2019-03-27T17:24:37.772Z,4.17
2019-03-27T17:27:08.316Z,3.97
2019-03-27T17:29:38.853Z,4.60
2019-03-27T17:32:09.741Z,4.03
2019-03-27T17:34:40.385Z,3.42
2019-03-27T17:37:10.936Z,4.30
2019-03-27T17:39:41.465Z,3.90
2019-03-27T17:42:12.182Z,3.45
2019-03-27T17:44:43.240Z,4.10
2019-03-27T17:47:14.377Z,4.20
2019-03-27T17:49:46.031Z,4.23
2019-03-27T17:52:16.788Z,4.07
2019-03-27T17:54:47.880Z,3.67
2019-03-27T17:57:21.575Z,3.60
2019-03-27T17:59:52.409Z,3.90
2019-03-27T18:02:23.222Z,4.30
2019-03-27T18:04:53.882Z,4.00
2019-03-27T18:07:24.581Z,4.07
2019-03-27T18:09:55.195Z,4.00
2019-03-27T18:12:26.360Z,3.60
2019-03-27T18:14:57.387Z,3.80
2019-03-27T18:17:27.864Z,3.97
2019-03-27T18:19:58.615Z,4.87
2019-03-27T18:22:29.729Z,4.07
2019-03-27T18:25:00.406Z,4.07
2019-03-27T18:27:30.887Z,4.60
2019-03-27T18:30:01.817Z,5.10
2019-03-27T18:32:32.559Z,4.50
2019-03-27T18:35:03.204Z,4.50
2019-03-27T18:37:33.535Z,3.90
2019-03-27T18:40:05.202Z,4.47
2019-03-27T18:42:35.757Z,3.87
2019-03-27T18:45:07.054Z,3.47
2019-03-27T18:47:38.569Z,3.50
2019-03-27T18:50:10.944Z,3.87
2019-03-27T18:52:42.047Z,3.72
2019-03-27T18:58:35.087Z,3.70
2019-03-27T19:01:06.265Z,4.23
2019-03-27T19:03:37.203Z,3.70
2019-03-27T19:06:07.889Z,4.00
2019-03-27T19:08:40.155Z,4.43
2019-03-27T19:11:29.898Z,3.87
2019-03-27T19:14:11.527Z,4.30
2019-03-27T19:19:55.651Z,4.23
2019-03-27T19:22:46.641Z,4.70
2019-03-27T19:25:18.300Z,4.27
2019-03-27T19:27:48.885Z,3.87
2019-03-27T19:33:39.023Z,4.30
2019-03-27T19:36:20.729Z,4.50
2019-03-27T19:39:30.109Z,4.03
2019-03-27T19:42:19.487Z,4.07
2019-03-27T19:47:53.424Z,3.97
2019-03-27T19:50:24.036Z,4.47
2019-03-27T19:52:54.786Z,4.07
2019-03-27T19:55:26.948Z,4.17
2019-03-27T19:57:58.001Z,3.93
2019-03-27T20:00:28.901Z,4.10
2019-03-27T20:03:00.096Z,4.67
2019-03-27T20:06:08.057Z,4.50
2019-03-27T20:08:57.446Z,4.53
2019-03-27T20:11:39.154Z,4.30
2019-03-27T20:14:19.912Z,4.33
2019-03-27T20:16:50.910Z,3.93
2019-03-27T20:19:22.027Z,4.50
2019-03-27T20:21:55.664Z,5.07
2019-03-27T20:24:40.194Z,4.70
2019-03-27T20:27:01.099Z,4.20
2019-03-27T20:29:35.528Z,4.20
2019-03-27T20:32:08.445Z,4.20
2019-03-27T20:34:41.759Z,4.07
2019-03-27T20:37:18.101Z,3.97
2019-03-27T20:42:58.428Z,4.00
2019-03-27T20:45:30.264Z,6.53
2019-03-27T20:48:02.930Z,5.17
2019-03-27T20:50:34.860Z,5.10
2019-03-27T20:53:08.676Z,4.70
2019-03-27T20:55:39.877Z,4.70
2019-03-27T20:58:16.114Z,4.50
2019-03-27T21:00:46.939Z,4.60
2019-03-27T21:03:17.523Z,4.60
2019-03-27T21:06:26.687Z,4.77
2019-03-27T21:09:36.444Z,4.87
2019-03-27T21:12:25.537Z,4.70
2019-03-27T21:18:36.365Z,5.00
2019-03-27T21:21:18.038Z,5.20
2019-03-27T21:23:59.730Z,4.97
2019-03-27T21:26:59.972Z,5.50
2019-03-27T21:29:41.733Z,4.70
2019-03-27T21:35:01.784Z,5.37
2019-03-27T21:38:02.416Z,5.83
2019-03-27T21:40:44.173Z,5.53
2019-03-27T21:46:43.372Z,6.07
2019-03-27T21:49:14.567Z,5.13
2019-03-27T21:51:45.095Z,6.20
2019-03-27T21:54:17.429Z,6.17
2019-03-27T21:56:47.929Z,5.77
2019-03-27T21:59:18.673Z,5.90
2019-03-27T22:04:58.764Z,6.10
2019-03-27T22:07:39.610Z,5.57
2019-03-27T22:13:22.037Z,6.00
2019-03-27T22:16:04.020Z,5.37
2019-03-27T22:18:45.150Z,5.67
2019-03-27T22:21:26.296Z,5.63
2019-03-27T22:24:07.504Z,6.33
2019-03-27T22:27:08.089Z,5.40
2019-03-27T22:29:49.476Z,6.00
2019-03-27T22:35:41.956Z,5.63
2019-03-27T22:38:23.403Z,5.97
2019-03-27T22:41:04.042Z,5.70
2019-03-27T22:44:13.351Z,5.73
2019-03-27T22:50:15.644Z,5.60
2019-03-27T22:52:56.626Z,5.60
2019-03-27T22:56:06.370Z,6.00
2019-03-27T22:58:55.518Z,5.53
2019-03-27T23:05:12.793Z,5.67
2019-03-27T23:08:04.646Z,5.67
2019-03-27T23:10:47.121Z,6.43
2019-03-27T23:13:56.751Z,5.90
2019-03-27T23:16:46.018Z,6.30
2019-03-27T23:19:56.279Z,6.03
2019-03-27T23:22:27.091Z,5.97
2019-03-27T23:25:16.814Z,6.30
2019-03-27T23:28:25.014Z,6.07
2019-03-27T23:31:06.090Z,6.60
2019-03-27T23:33:55.344Z,6.20
2019-03-27T23:36:45.085Z,5.87
2019-03-27T23:39:26.747Z,6.80
2019-03-27T23:42:27.680Z,6.57
2019-03-27T23:45:08.663Z,6.97
2019-03-27T23:48:09.621Z,7.30
2019-03-27T23:50:51.268Z,6.33
2019-03-27T23:53:52.226Z,6.90
2019-03-27T23:56:33.156Z,7.37
